Pryor, Colorado
Current Conditions -  °F | °C
As of 9:11 AM on Thursday 27 Nov 2014 (Local Time) from KVTP Reporting Station
Clear Clear  
Wind Chill: 24°   Ceiling: Unl
Heat Index: 34°   Visibility: 10mi
Dew Point: 14°   Wind: 15mph
Humidity: 44%   Direction: 190°S
Pressure: 30.52"   Gusts: 24mph
Location:  37.6936°N, 104.772°W
Report Text: KVTP 271611Z AUTO 19013G21KT 170V240 10SM CLR 01/M10 A3052 RMK AO2
Loading
Personal Weather Stations






























Interactive Weather Map New forecast layout! Learn more

10-Day Weather Forecast

Advertisements
Track Severe Weather on mobile